sensor_id;sensor_type;location;lat;lon;timestamp;pressure;altitude;pressure_sealevel;temperature;humidity
46942;BME280;32676;52.630;4.896;2023-05-16T00:00:26;99159.38;;;8.47;76.03
46942;BME280;32676;52.630;4.896;2023-05-16T00:02:52;99168.00;;;8.49;76.10
46942;BME280;32676;52.630;4.896;2023-05-16T00:05:19;99179.22;;;8.51;76.11
46942;BME280;32676;52.630;4.896;2023-05-16T00:07:45;99177.56;;;8.50;76.18
46942;BME280;32676;52.630;4.896;2023-05-16T00:10:12;99180.16;;;8.50;76.21
46942;BME280;32676;52.630;4.896;2023-05-16T00:12:40;99169.78;;;8.48;76.08
46942;BME280;32676;52.630;4.896;2023-05-16T00:15:09;99168.22;;;8.44;76.11
46942;BME280;32676;52.630;4.896;2023-05-16T00:17:38;99156.06;;;8.43;76.05
46942;BME280;32676;52.630;4.896;2023-05-16T00:20:05;99165.69;;;8.42;76.07
46942;BME280;32676;52.630;4.896;2023-05-16T00:22:34;99157.84;;;8.42;76.11
46942;BME280;32676;52.630;4.896;2023-05-16T00:25:01;99157.84;;;8.42;75.98
46942;BME280;32676;52.630;4.896;2023-05-16T00:27:29;99151.81;;;8.40;75.79
46942;BME280;32676;52.630;4.896;2023-05-16T00:29:55;99131.94;;;8.36;75.97
46942;BME280;32676;52.630;4.896;2023-05-16T00:32:21;99131.16;;;8.34;75.96
46942;BME280;32676;52.630;4.896;2023-05-16T00:34:49;99128.63;;;8.33;76.07
46942;BME280;32676;52.630;4.896;2023-05-16T00:37:16;99117.31;;;8.32;76.11
46942;BME280;32676;52.630;4.896;2023-05-16T00:39:42;99130.41;;;8.32;76.06
46942;BME280;32676;52.630;4.896;2023-05-16T00:42:08;99115.78;;;8.28;76.20
46942;BME280;32676;52.630;4.896;2023-05-16T00:44:35;99106.31;;;8.25;76.18
46942;BME280;32676;52.630;4.896;2023-05-16T00:47:01;99111.47;;;8.27;76.15
46942;BME280;32676;52.630;4.896;2023-05-16T00:49:28;99108.84;;;8.27;76.21
46942;BME280;32676;52.630;4.896;2023-05-16T00:51:56;99121.03;;;8.28;76.33
46942;BME280;32676;52.630;4.896;2023-05-16T00:54:23;99115.78;;;8.28;76.28
46942;BME280;32676;52.630;4.896;2023-05-16T00:56:53;99106.31;;;8.25;76.32
46942;BME280;32676;52.630;4.896;2023-05-16T00:59:20;99103.75;;;8.24;76.28
46942;BME280;32676;52.630;4.896;2023-05-16T01:01:46;99102.91;;;8.23;76.03
46942;BME280;32676;52.630;4.896;2023-05-16T01:04:13;99102.91;;;8.23;76.26
46942;BME280;32676;52.630;4.896;2023-05-16T01:06:39;99096.00;;;8.22;76.15
46942;BME280;32676;52.630;4.896;2023-05-16T01:09:07;99100.38;;;8.22;76.19
46942;BME280;32676;52.630;4.896;2023-05-16T01:11:35;99095.31;;;8.19;76.19
46942;BME280;32676;52.630;4.896;2023-05-16T01:14:08;99088.38;;;8.18;76.16
46942;BME280;32676;52.630;4.896;2023-05-16T01:16:38;99090.09;;;8.19;76.24
46942;BME280;32676;52.630;4.896;2023-05-16T01:19:06;99085.84;;;8.16;76.20
46942;BME280;32676;52.630;4.896;2023-05-16T01:21:41;99071.22;;;8.12;76.25
46942;BME280;32676;52.630;4.896;2023-05-16T01:24:13;99052.22;;;8.08;76.26
46942;BME280;32676;52.630;4.896;2023-05-16T01:26:42;99060.84;;;8.11;76.31
46942;BME280;32676;52.630;4.896;2023-05-16T01:29:09;99066.91;;;8.11;76.29
46942;BME280;32676;52.630;4.896;2023-05-16T01:31:35;99069.53;;;8.11;76.35
46942;BME280;32676;52.630;4.896;2023-05-16T01:34:01;99080.09;;;8.10;76.42
46942;BME280;32676;52.630;4.896;2023-05-16T01:36:29;99076.38;;;8.14;76.54
46942;BME280;32676;52.630;4.896;2023-05-16T01:39:02;99064.41;;;8.10;76.31
46942;BME280;32676;52.630;4.896;2023-05-16T01:41:34;99066.22;;;8.07;76.32
46942;BME280;32676;52.630;4.896;2023-05-16T01:44:06;99076.53;;;8.11;76.39
46942;BME280;32676;52.630;4.896;2023-05-16T01:46:37;99084.38;;;8.11;76.38
46942;BME280;32676;52.630;4.896;2023-05-16T01:49:08;99099.00;;;8.15;76.40
46942;BME280;32676;52.630;4.896;2023-05-16T01:51:40;99106.78;;;8.16;76.30
46942;BME280;32676;52.630;4.896;2023-05-16T01:54:09;99104.09;;;8.18;76.26
46942;BME280;32676;52.630;4.896;2023-05-16T01:56:37;99110.25;;;8.17;76.11
46942;BME280;32676;52.630;4.896;2023-05-16T01:59:05;99121.50;;;8.19;76.39
46942;BME280;32676;52.630;4.896;2023-05-16T02:01:33;99111.16;;;8.16;76.30
46942;BME280;32676;52.630;4.896;2023-05-16T02:04:00;99108.56;;;8.16;76.31
46942;BME280;32676;52.630;4.896;2023-05-16T02:06:26;99122.31;;;8.19;76.35
46942;BME280;32676;52.630;4.896;2023-05-16T02:08:53;99116.25;;;8.19;76.29
46942;BME280;32676;52.630;4.896;2023-05-16T02:11:19;99120.72;;;8.17;76.17
46942;BME280;32676;52.630;4.896;2023-05-16T02:13:46;99113.03;;;8.14;76.11
46942;BME280;32676;52.630;4.896;2023-05-16T02:16:13;99114.69;;;8.15;76.07
46942;BME280;32676;52.630;4.896;2023-05-16T02:18:40;99111.25;;;8.14;75.98
46942;BME280;32676;52.630;4.896;2023-05-16T02:21:06;99116.41;;;8.16;76.01
46942;BME280;32676;52.630;4.896;2023-05-16T02:23:32;99124.25;;;8.16;76.09
46942;BME280;32676;52.630;4.896;2023-05-16T02:25:59;99113.84;;;8.14;75.90
46942;BME280;32676;52.630;4.896;2023-05-16T02:28:25;99118.25;;;8.14;75.76
46942;BME280;32676;52.630;4.896;2023-05-16T02:30:55;99082.69;;;7.92;75.69
46942;BME280;32676;52.630;4.896;2023-05-16T02:33:23;99113.03;;;8.14;75.73
46942;BME280;32676;52.630;4.896;2023-05-16T02:35:49;99104.41;;;8.12;75.85
46942;BME280;32676;52.630;4.896;2023-05-16T02:38:16;99098.41;;;8.10;75.78
46942;BME280;32676;52.630;4.896;2023-05-16T02:40:46;99099.31;;;8.08;75.73
46942;BME280;32676;52.630;4.896;2023-05-16T02:43:12;99084.63;;;8.06;75.93
46942;BME280;32676;52.630;4.896;2023-05-16T02:45:39;99055.28;;;7.82;75.79
46942;BME280;32676;52.630;4.896;2023-05-16T02:48:05;99097.59;;;8.07;75.77
46942;BME280;32676;52.630;4.896;2023-05-16T02:50:33;99094.22;;;8.05;75.78
46942;BME280;32676;52.630;4.896;2023-05-16T02:53:00;99095.16;;;8.04;75.78
46942;BME280;32676;52.630;4.896;2023-05-16T02:55:26;99099.47;;;8.05;75.95
46942;BME280;32676;52.630;4.896;2023-05-16T02:57:53;99095.94;;;8.06;75.91
46942;BME280;32676;52.630;4.896;2023-05-16T03:00:20;99097.78;;;8.04;76.08
46942;BME280;32676;52.630;4.896;2023-05-16T03:02:46;99096.91;;;8.04;76.22
46942;BME280;32676;52.630;4.896;2023-05-16T03:05:13;99082.22;;;8.01;76.24
46942;BME280;32676;52.630;4.896;2023-05-16T03:07:40;99073.63;;;7.99;76.18
46942;BME280;32676;52.630;4.896;2023-05-16T03:10:08;99082.22;;;8.01;76.18
46942;BME280;32676;52.630;4.896;2023-05-16T03:12:35;99087.59;;;7.98;76.21
46942;BME280;32676;52.630;4.896;2023-05-16T03:15:02;99095.25;;;8.03;76.19
46942;BME280;32676;52.630;4.896;2023-05-16T03:17:29;99111.69;;;8.05;76.37
46942;BME280;32676;52.630;4.896;2023-05-16T03:19:55;99102.25;;;8.02;76.30
46942;BME280;32676;52.630;4.896;2023-05-16T03:22:22;99096.06;;;8.03;76.52
46942;BME280;32676;52.630;4.896;2023-05-16T03:24:49;99097.00;;;8.02;76.63
46942;BME280;32676;52.630;4.896;2023-05-16T03:27:17;99104.88;;;8.02;76.80
46942;BME280;32676;52.630;4.896;2023-05-16T03:29:43;99123.00;;;8.05;76.75
46942;BME280;32676;52.630;4.896;2023-05-16T03:32:10;99119.56;;;8.05;76.86
46942;BME280;32676;52.630;4.896;2023-05-16T03:34:36;99120.38;;;8.05;76.80
46942;BME280;32676;52.630;4.896;2023-05-16T03:37:03;99121.31;;;8.04;76.84
46942;BME280;32676;52.630;4.896;2023-05-16T03:39:29;99108.25;;;8.04;77.16
46942;BME280;32676;52.630;4.896;2023-05-16T03:41:57;99128.16;;;8.07;77.08
46942;BME280;32676;52.630;4.896;2023-05-16T03:44:24;99138.47;;;8.10;77.02
46942;BME280;32676;52.630;4.896;2023-05-16T03:46:51;99161.78;;;8.15;76.89
46942;BME280;32676;52.630;4.896;2023-05-16T03:49:22;99166.88;;;8.18;76.95
46942;BME280;32676;52.630;4.896;2023-05-16T03:51:49;99198.13;;;8.21;76.73
46942;BME280;32676;52.630;4.896;2023-05-16T03:54:16;99199.81;;;8.22;76.63
46942;BME280;32676;52.630;4.896;2023-05-16T03:56:42;99200.69;;;8.22;76.63
46942;BME280;32676;52.630;4.896;2023-05-16T03:59:10;99206.75;;;8.23;76.64
46942;BME280;32676;52.630;4.896;2023-05-16T04:01:37;99204.06;;;8.24;76.68
46942;BME280;32676;52.630;4.896;2023-05-16T04:04:03;99226.59;;;8.27;76.54
46942;BME280;32676;52.630;4.896;2023-05-16T04:06:30;99228.31;;;8.28;76.68
46942;BME280;32676;52.630;4.896;2023-05-16T04:08:56;99234.31;;;8.30;76.50
46942;BME280;32676;52.630;4.896;2023-05-16T04:11:23;99254.25;;;8.33;76.38
46942;BME280;32676;52.630;4.896;2023-05-16T04:13:50;99245.56;;;8.32;76.24
46942;BME280;32676;52.630;4.896;2023-05-16T04:16:19;99263.81;;;8.34;76.00
46942;BME280;32676;52.630;4.896;2023-05-16T04:18:45;99271.59;;;8.35;75.88
46942;BME280;32676;52.630;4.896;2023-05-16T04:21:12;99281.88;;;8.38;75.68
46942;BME280;32676;52.630;4.896;2023-05-16T04:23:39;99276.75;;;8.37;75.55
46942;BME280;32676;52.630;4.896;2023-05-16T04:26:05;99284.50;;;8.38;75.51
46942;BME280;32676;52.630;4.896;2023-05-16T04:28:32;99293.16;;;8.40;75.34
46942;BME280;32676;52.630;4.896;2023-05-16T04:30:59;99312.09;;;8.45;75.38
46942;BME280;32676;52.630;4.896;2023-05-16T04:33:30;99328.53;;;8.49;75.42
46942;BME280;32676;52.630;4.896;2023-05-16T04:35:56;99347.53;;;8.53;75.42
46942;BME280;32676;52.630;4.896;2023-05-16T04:38:23;99368.22;;;8.59;75.23
46942;BME280;32676;52.630;4.896;2023-05-16T04:40:49;99389.00;;;8.62;75.39
46942;BME280;32676;52.630;4.896;2023-05-16T04:43:16;99398.56;;;8.63;74.95
46942;BME280;32676;52.630;4.896;2023-05-16T04:45:42;99409.81;;;8.65;74.96
46942;BME280;32676;52.630;4.896;2023-05-16T04:48:09;99438.31;;;8.71;74.77
46942;BME280;32676;52.630;4.896;2023-05-16T04:50:37;99459.00;;;8.77;74.75
46942;BME280;32676;52.630;4.896;2023-05-16T04:53:03;99486.59;;;8.84;74.51
46942;BME280;32676;52.630;4.896;2023-05-16T04:55:35;99518.56;;;8.91;74.31
46942;BME280;32676;52.630;4.896;2023-05-16T04:58:02;99544.50;;;8.97;74.36
46942;BME280;32676;52.630;4.896;2023-05-16T05:00:28;99553.97;;;9.00;74.42
46942;BME280;32676;52.630;4.896;2023-05-16T05:02:55;99586.00;;;9.07;74.26
46942;BME280;32676;52.630;4.896;2023-05-16T05:05:21;99605.81;;;9.12;74.40
46942;BME280;32676;52.630;4.896;2023-05-16T05:07:49;99649.06;;;9.22;74.37
46942;BME280;32676;52.630;4.896;2023-05-16T05:10:16;99690.56;;;9.32;74.36
46942;BME280;32676;52.630;4.896;2023-05-16T05:12:43;99739.91;;;9.43;74.25
46942;BME280;32676;52.630;4.896;2023-05-16T05:15:09;99784.84;;;9.54;73.99
46942;BME280;32676;52.630;4.896;2023-05-16T05:17:35;99832.47;;;9.64;73.88
46942;BME280;32676;52.630;4.896;2023-05-16T05:20:02;99883.50;;;9.77;73.66
46942;BME280;32676;52.630;4.896;2023-05-16T05:22:31;99932.78;;;9.89;73.26
46942;BME280;32676;52.630;4.896;2023-05-16T05:24:59;99977.94;;;9.97;72.94
46942;BME280;32676;52.630;4.896;2023-05-16T05:27:25;100009.94;;;10.06;72.58
46942;BME280;32676;52.630;4.896;2023-05-16T05:29:52;100037.63;;;10.13;72.26
46942;BME280;32676;52.630;4.896;2023-05-16T05:32:18;100078.38;;;10.22;71.97
46942;BME280;32676;52.630;4.896;2023-05-16T05:34:45;100098.25;;;10.27;71.67
46942;BME280;32676;52.630;4.896;2023-05-16T05:37:11;100123.50;;;10.31;71.52
46942;BME280;32676;52.630;4.896;2023-05-16T05:39:38;100154.66;;;10.41;71.33
46942;BME280;32676;52.630;4.896;2023-05-16T05:42:06;100190.16;;;10.49;71.39
46942;BME280;32676;52.630;4.896;2023-05-16T05:44:33;100217.03;;;10.56;71.03
46942;BME280;32676;52.630;4.896;2023-05-16T05:46:59;100251.72;;;10.64;70.90
46942;BME280;32676;52.630;4.896;2023-05-16T05:49:25;100288.25;;;10.70;70.60
46942;BME280;32676;52.630;4.896;2023-05-16T05:51:52;100308.16;;;10.76;70.43
46942;BME280;32676;52.630;4.896;2023-05-16T05:54:19;100326.38;;;10.81;70.32
46942;BME280;32676;52.630;4.896;2023-05-16T05:56:45;100374.16;;;10.90;70.05
46942;BME280;32676;52.630;4.896;2023-05-16T05:59:13;100411.44;;;11.00;70.03
46942;BME280;32676;52.630;4.896;2023-05-16T06:01:40;100462.69;;;11.12;69.86
46942;BME280;32676;52.630;4.896;2023-05-16T06:04:08;100503.53;;;11.21;69.80
46942;BME280;32676;52.630;4.896;2023-05-16T06:06:34;100545.19;;;11.31;69.64
46942;BME280;32676;52.630;4.896;2023-05-16T06:09:00;100610.34;;;11.47;69.18
46942;BME280;32676;52.630;4.896;2023-05-16T06:11:27;100631.22;;;11.51;68.65
46942;BME280;32676;52.630;4.896;2023-05-16T06:13:53;100605.13;;;11.45;68.57
46942;BME280;32676;52.630;4.896;2023-05-16T06:16:24;100545.25;;;11.30;68.67
46942;BME280;32676;52.630;4.896;2023-05-16T06:18:50;100486.13;;;11.17;68.21
46942;BME280;32676;52.630;4.896;2023-05-16T06:21:17;100445.38;;;11.06;68.22
46942;BME280;32676;52.630;4.896;2023-05-16T06:23:44;100451.53;;;11.05;68.66
46942;BME280;32676;52.630;4.896;2023-05-16T06:26:11;100463.63;;;11.09;68.74
46942;BME280;32676;52.630;4.896;2023-05-16T06:28:37;100479.31;;;11.12;68.63
46942;BME280;32676;52.630;4.896;2023-05-16T06:31:06;100514.06;;;11.21;68.43
46942;BME280;32676;52.630;4.896;2023-05-16T06:33:33;100546.22;;;11.27;68.31
46942;BME280;32676;52.630;4.896;2023-05-16T06:36:00;100576.59;;;11.34;67.88
46942;BME280;32676;52.630;4.896;2023-05-16T06:38:26;100603.53;;;11.41;67.32
46942;BME280;32676;52.630;4.896;2023-05-16T06:40:53;100633.13;;;11.48;67.32
46942;BME280;32676;52.630;4.896;2023-05-16T06:43:19;100677.41;;;11.59;67.32
46942;BME280;32676;52.630;4.896;2023-05-16T06:45:45;100743.53;;;11.73;67.10
46942;BME280;32676;52.630;4.896;2023-05-16T06:48:12;100747.84;;;11.76;67.07
46942;BME280;32676;52.630;4.896;2023-05-16T06:50:40;100706.91;;;11.67;67.02
46942;BME280;32676;52.630;4.896;2023-05-16T06:53:06;100673.97;;;11.57;67.30
46942;BME280;32676;52.630;4.896;2023-05-16T06:55:33;100651.34;;;11.52;67.00
46942;BME280;32676;52.630;4.896;2023-05-16T06:57:59;100621.84;;;11.44;67.41
46942;BME280;32676;52.630;4.896;2023-05-16T07:00:26;100604.44;;;11.40;67.41
46942;BME280;32676;52.630;4.896;2023-05-16T07:02:52;100649.63;;;11.51;67.41
46942;BME280;32676;52.630;4.896;2023-05-16T07:05:18;100733.97;;;11.70;67.58
46942;BME280;32676;52.630;4.896;2023-05-16T07:07:46;100818.38;;;11.89;67.88
46942;BME280;32676;52.630;4.896;2023-05-16T07:10:13;100911.56;;;12.10;67.14
46942;BME280;32676;52.630;4.896;2023-05-16T07:12:40;100903.72;;;12.09;66.63
46942;BME280;32676;52.630;4.896;2023-05-16T07:15:07;100913.28;;;12.12;65.66
46942;BME280;32676;52.630;4.896;2023-05-16T07:17:33;100900.28;;;12.07;65.70
46942;BME280;32676;52.630;4.896;2023-05-16T07:20:00;100876.72;;;12.02;65.89
46942;BME280;32676;52.630;4.896;2023-05-16T07:22:26;100835.81;;;11.94;66.24
46942;BME280;32676;52.630;4.896;2023-05-16T07:24:54;100895.00;;;12.07;66.29
46942;BME280;32676;52.630;4.896;2023-05-16T07:27:24;100999.53;;;12.30;66.44
46942;BME280;32676;52.630;4.896;2023-05-16T07:29:51;101025.59;;;12.38;65.88
46942;BME280;32676;52.630;4.896;2023-05-16T07:32:17;101009.91;;;12.35;65.28
46942;BME280;32676;52.630;4.896;2023-05-16T07:34:44;100974.19;;;12.26;64.78
46942;BME280;32676;52.630;4.896;2023-05-16T07:37:10;100912.41;;;12.11;64.80
46942;BME280;32676;52.630;4.896;2023-05-16T07:39:38;100860.19;;;11.99;65.06
46942;BME280;32676;52.630;4.896;2023-05-16T07:42:09;100887.25;;;12.02;64.95
46942;BME280;32676;52.630;4.896;2023-05-16T07:44:37;100902.00;;;12.08;64.58
46942;BME280;32676;52.630;4.896;2023-05-16T07:47:07;100982.19;;;12.24;63.81
46942;BME280;32676;52.630;4.896;2023-05-16T07:52:08;100995.13;;;12.31;61.55
46942;BME280;32676;52.630;4.896;2023-05-16T07:54:36;100976.03;;;12.24;60.99
46942;BME280;32676;52.630;4.896;2023-05-16T07:57:05;100955.94;;;12.21;60.94
46942;BME280;32676;52.630;4.896;2023-05-16T07:59:33;101043.16;;;12.39;60.96
46942;BME280;32676;52.630;4.896;2023-05-16T08:01:59;101144.16;;;12.64;61.17
46942;BME280;32676;52.630;4.896;2023-05-16T08:04:26;101266.16;;;12.93;60.87
46942;BME280;32676;52.630;4.896;2023-05-16T08:06:52;101366.50;;;13.17;60.25
46942;BME280;32676;52.630;4.896;2023-05-16T08:09:19;101401.38;;;13.27;59.77
46942;BME280;32676;52.630;4.896;2023-05-16T08:11:45;101381.28;;;13.22;59.06
46942;BME280;32676;52.630;4.896;2023-05-16T08:14:11;101380.44;;;13.20;58.02
46942;BME280;32676;52.630;4.896;2023-05-16T08:16:39;101379.53;;;13.21;57.75
46942;BME280;32676;52.630;4.896;2023-05-16T08:19:05;101466.91;;;13.40;57.64
46942;BME280;32676;52.630;4.896;2023-05-16T08:21:32;101546.38;;;13.59;57.89
46942;BME280;32676;52.630;4.896;2023-05-16T08:23:58;101555.94;;;13.62;58.41
46942;BME280;32676;52.630;4.896;2023-05-16T08:26:25;101520.09;;;13.55;59.26
46942;BME280;32676;52.630;4.896;2023-05-16T08:28:51;101475.66;;;13.42;60.00
46942;BME280;32676;52.630;4.896;2023-05-16T08:31:18;101458.16;;;13.38;59.29
46942;BME280;32676;52.630;4.896;2023-05-16T08:33:46;101532.41;;;13.56;59.02
46942;BME280;32676;52.630;4.896;2023-05-16T08:36:12;101627.59;;;13.79;58.78
46942;BME280;32676;52.630;4.896;2023-05-16T08:38:39;101736.03;;;14.03;58.14
46942;BME280;32676;52.630;4.896;2023-05-16T08:41:06;101800.69;;;14.19;58.38
46942;BME280;32676;52.630;4.896;2023-05-16T08:43:32;101858.47;;;14.32;58.89
46942;BME280;32676;52.630;4.896;2023-05-16T08:46:00;101819.94;;;14.25;59.38
46942;BME280;32676;52.630;4.896;2023-05-16T08:48:27;101787.56;;;14.16;59.65
46942;BME280;32676;52.630;4.896;2023-05-16T08:50:54;101777.97;;;14.14;59.68
46942;BME280;32676;52.630;4.896;2023-05-16T08:53:21;101717.66;;;13.98;58.86
46942;BME280;32676;52.630;4.896;2023-05-16T08:55:51;101695.75;;;13.95;59.11
46942;BME280;32676;52.630;4.896;2023-05-16T08:58:18;101676.53;;;13.90;59.42
46942;BME280;32676;52.630;4.896;2023-05-16T09:00:46;101731.66;;;14.02;59.90
46942;BME280;32676;52.630;4.896;2023-05-16T09:03:13;101784.16;;;14.13;59.72
46942;BME280;32676;52.630;4.896;2023-05-16T09:05:39;101840.91;;;14.29;59.37
46942;BME280;32676;52.630;4.896;2023-05-16T09:08:07;101917.09;;;14.46;58.36
46942;BME280;32676;52.630;4.896;2023-05-16T09:10:34;101977.50;;;14.60;56.29
46942;BME280;32676;52.630;4.896;2023-05-16T09:13:00;101965.25;;;14.57;55.01
46942;BME280;32676;52.630;4.896;2023-05-16T09:15:30;101938.94;;;14.51;55.10
46942;BME280;32676;52.630;4.896;2023-05-16T09:17:58;101964.34;;;14.58;54.83
46942;BME280;32676;52.630;4.896;2023-05-16T09:20:25;102021.25;;;14.72;54.60
46942;BME280;32676;52.630;4.896;2023-05-16T09:22:52;102095.69;;;14.89;53.52
46942;BME280;32676;52.630;4.896;2023-05-16T09:25:20;102108.00;;;14.92;53.44
46942;BME280;32676;52.630;4.896;2023-05-16T09:27:46;102133.41;;;14.97;53.12
46942;BME280;32676;52.630;4.896;2023-05-16T09:30:13;102187.72;;;15.11;53.56
46942;BME280;32676;52.630;4.896;2023-05-16T09:32:41;102154.38;;;15.04;53.08
46942;BME280;32676;52.630;4.896;2023-05-16T09:35:08;102225.44;;;15.19;52.55
46942;BME280;32676;52.630;4.896;2023-05-16T09:37:36;102275.38;;;15.31;53.33
46942;BME280;32676;52.630;4.896;2023-05-16T09:40:02;102240.31;;;15.23;53.37
46942;BME280;32676;52.630;4.896;2023-05-16T09:42:30;102275.38;;;15.31;52.70
46942;BME280;32676;52.630;4.896;2023-05-16T09:44:56;102273.66;;;15.30;53.18
46942;BME280;32676;52.630;4.896;2023-05-16T09:47:23;102265.72;;;15.30;54.04
46942;BME280;32676;52.630;4.896;2023-05-16T09:49:52;102220.06;;;15.21;53.83
46942;BME280;32676;52.630;4.896;2023-05-16T09:52:19;102149.09;;;15.04;54.08
46942;BME280;32676;52.630;4.896;2023-05-16T09:54:46;102111.41;;;14.95;54.62
46942;BME280;32676;52.630;4.896;2023-05-16T09:57:16;102072.00;;;14.86;54.69
46942;BME280;32676;52.630;4.896;2023-05-16T09:59:44;102047.44;;;14.81;55.17
46942;BME280;32676;52.630;4.896;2023-05-16T10:02:10;102154.31;;;15.07;56.16
46942;BME280;32676;52.630;4.896;2023-05-16T10:04:38;102234.94;;;15.26;58.33
46942;BME280;32676;52.630;4.896;2023-05-16T10:07:05;102296.28;;;15.41;58.11
46942;BME280;32676;52.630;4.896;2023-05-16T10:09:33;102368.28;;;15.55;58.87
46942;BME280;32676;52.630;4.896;2023-05-16T10:12:00;102423.56;;;15.69;59.45
46942;BME280;32676;52.630;4.896;2023-05-16T10:14:28;102428.81;;;15.70;59.94
46942;BME280;32676;52.630;4.896;2023-05-16T10:16:57;102375.34;;;15.56;58.69
46942;BME280;32676;52.630;4.896;2023-05-16T10:19:23;102334.03;;;15.49;58.24
46942;BME280;32676;52.630;4.896;2023-05-16T10:21:50;102315.69;;;15.43;57.90
46942;BME280;32676;52.630;4.896;2023-05-16T10:24:21;102257.75;;;15.30;57.04
46942;BME280;32676;52.630;4.896;2023-05-16T10:26:48;102248.09;;;15.28;56.91
46942;BME280;32676;52.630;4.896;2023-05-16T10:29:15;102251.59;;;15.30;57.86
46942;BME280;32676;52.630;4.896;2023-05-16T10:31:42;102241.94;;;15.27;58.22
46942;BME280;32676;52.630;4.896;2023-05-16T10:34:10;102155.13;;;15.09;58.13
46942;BME280;32676;52.630;4.896;2023-05-16T10:36:37;102133.28;;;15.01;58.43
46942;BME280;32676;52.630;4.896;2023-05-16T10:39:03;102041.25;;;14.81;57.90
46942;BME280;32676;52.630;4.896;2023-05-16T10:41:31;102010.56;;;14.75;58.09
46942;BME280;32676;52.630;4.896;2023-05-16T10:43:58;101988.75;;;14.68;57.79
46942;BME280;32676;52.630;4.896;2023-05-16T10:46:25;101959.84;;;14.61;58.13
46942;BME280;32676;52.630;4.896;2023-05-16T10:48:52;101984.31;;;14.69;58.26
46942;BME280;32676;52.630;4.896;2023-05-16T10:51:38;102017.59;;;14.76;58.27
46942;BME280;32676;52.630;4.896;2023-05-16T10:54:05;102069.28;;;14.88;57.80
46942;BME280;32676;52.630;4.896;2023-05-16T10:56:32;102052.63;;;14.84;57.35
46942;BME280;32676;52.630;4.896;2023-05-16T10:58:59;102027.22;;;14.78;56.83
46942;BME280;32676;52.630;4.896;2023-05-16T11:01:26;102073.63;;;14.90;56.80
46942;BME280;32676;52.630;4.896;2023-05-16T11:04:06;102162.22;;;15.08;57.17
46942;BME280;32676;52.630;4.896;2023-05-16T11:06:34;102205.16;;;15.18;57.10
46942;BME280;32676;52.630;4.896;2023-05-16T11:09:05;102231.41;;;15.26;57.46
46942;BME280;32676;52.630;4.896;2023-05-16T11:11:41;102217.38;;;15.22;57.46
46942;BME280;32676;52.630;4.896;2023-05-16T11:14:07;102205.06;;;15.21;57.00
46942;BME280;32676;52.630;4.896;2023-05-16T11:16:34;102257.69;;;15.33;57.03
46942;BME280;32676;52.630;4.896;2023-05-16T11:19:04;102221.75;;;15.25;56.52
46942;BME280;32676;52.630;4.896;2023-05-16T11:24:29;102107.78;;;14.98;56.25
46942;BME280;32676;52.630;4.896;2023-05-16T11:26:55;102089.34;;;14.95;57.34
46942;BME280;32676;52.630;4.896;2023-05-16T11:29:22;102106.94;;;14.97;57.63
46942;BME280;32676;52.630;4.896;2023-05-16T11:31:48;102074.47;;;14.91;57.53
46942;BME280;32676;52.630;4.896;2023-05-16T11:34:15;102014.03;;;14.77;57.68
46942;BME280;32676;52.630;4.896;2023-05-16T11:36:42;102071.88;;;14.89;57.39
46942;BME280;32676;52.630;4.896;2023-05-16T11:39:08;102113.88;;;15.02;57.40
46942;BME280;32676;52.630;4.896;2023-05-16T11:41:37;102145.44;;;15.08;56.36
46942;BME280;32676;52.630;4.896;2023-05-16T11:44:03;102179.16;;;15.03;55.92
46942;BME280;32676;52.630;4.896;2023-05-16T11:46:32;102227.00;;;15.26;55.88
46942;BME280;32676;52.630;4.896;2023-05-16T11:48:58;102237.44;;;15.31;55.67
46942;BME280;32676;52.630;4.896;2023-05-16T11:51:25;102228.66;;;15.29;54.84
46942;BME280;32676;52.630;4.896;2023-05-16T11:53:51;102247.94;;;15.34;55.03
46942;BME280;32676;52.630;4.896;2023-05-16T11:56:18;102317.25;;;15.50;55.09
46942;BME280;32676;52.630;4.896;2023-05-16T11:58:47;102344.41;;;15.57;54.45
46942;BME280;32676;52.630;4.896;2023-05-16T12:01:14;102343.56;;;15.56;53.27
46942;BME280;32676;52.630;4.896;2023-05-16T12:03:41;102369.84;;;15.62;53.02
46942;BME280;32676;52.630;4.896;2023-05-16T12:06:07;102371.63;;;15.63;52.43
46942;BME280;32676;52.630;4.896;2023-05-16T12:08:34;102388.28;;;15.67;52.51
46942;BME280;32676;52.630;4.896;2023-05-16T12:11:00;102404.97;;;15.70;52.85
46942;BME280;32676;52.630;4.896;2023-05-16T12:13:27;102438.28;;;15.81;52.79
46942;BME280;32676;52.630;4.896;2023-05-16T12:15:54;102444.44;;;15.83;51.83
46942;BME280;32676;52.630;4.896;2023-05-16T12:18:21;102454.09;;;15.84;51.83
46942;BME280;32676;52.630;4.896;2023-05-16T12:20:49;102459.31;;;15.87;51.88
46942;BME280;32676;52.630;4.896;2023-05-16T12:23:16;102493.59;;;15.93;51.87
46942;BME280;32676;52.630;4.896;2023-05-16T12:25:44;102508.53;;;15.97;51.47
46942;BME280;32676;52.630;4.896;2023-05-16T12:28:11;102477.72;;;15.91;51.43
46942;BME280;32676;52.630;4.896;2023-05-16T12:30:39;102469.84;;;15.90;50.97
46942;BME280;32676;52.630;4.896;2023-05-16T12:33:08;102425.94;;;15.80;50.06
46942;BME280;32676;52.630;4.896;2023-05-16T12:35:36;102411.88;;;15.78;50.62
46942;BME280;32676;52.630;4.896;2023-05-16T12:38:03;102460.19;;;15.87;51.39
46942;BME280;32676;52.630;4.896;2023-05-16T12:40:31;102497.94;;;15.97;51.68
46942;BME280;32676;52.630;4.896;2023-05-16T12:42:58;102537.38;;;16.08;51.24
46942;BME280;32676;52.630;4.896;2023-05-16T12:45:25;102553.25;;;16.09;50.77
46942;BME280;32676;52.630;4.896;2023-05-16T12:47:52;102580.44;;;16.18;51.06
46942;BME280;32676;52.630;4.896;2023-05-16T12:50:19;102571.66;;;16.16;50.80
46942;BME280;32676;52.630;4.896;2023-05-16T12:52:47;102571.63;;;16.17;50.77
46942;BME280;32676;52.630;4.896;2023-05-16T12:55:14;102584.78;;;16.20;50.18
46942;BME280;32676;52.630;4.896;2023-05-16T12:57:41;102540.00;;;16.09;50.25
46942;BME280;32676;52.630;4.896;2023-05-16T13:00:08;102520.69;;;16.04;49.69
46942;BME280;32676;52.630;4.896;2023-05-16T13:02:35;102522.44;;;16.05;50.01